首页
METAR-TAF:

METAR-TAF

机场 :

Meridian Regional Airport (Key Field)

子午线, 密西西比州, 美国

纬度: 32-20-17N, 经度: 088-44-52W, 海拔: 90米

当前天气观测

该预报发布于19分钟前的12:58 UTC
风速4节,风向
温度 8°C
湿度 42%
气压 1023 hPa
能見度: 16.1公里
阴天层高于8500英尺

METAR: KMEI 031258Z 09004KT 10SM OVC085 08/M04 A3022 RMK AO2 SLP234 I1000 T00781039

时间: 07:17 (13:17 UTC)

预报

该预报发布于1小时和26分钟前的11:51 UTC
预报有效从03日的 12点(UTC)到 04日的 12点(UTC)
风速10节,风向东转东南
能見度: 10公里
阴天层高于10000英尺
从 03日的 1800点(UTC)
风速8节,风向东转东南
能見度: 10公里
阴天层高于4500英尺
附近有阵雨
从 04日的 0100点(UTC)
风速5节,风向东转东南
能見度: 10公里
多云层高于3500英尺
阵雨
从 04日的 0700点(UTC)
风速5节,风向南转南东
能見度: 6.4公里
阴天层高于1300英尺
轻雾, 附近有阵雨
从 04日的 1000点(UTC)
风速5节,风向西南
能見度: 4.8公里
阴天层高于400英尺
轻雾, 附近有阵雨

TAF: KMEI 031151Z 0312/0412 12010KT P6SM OVC100 WS020/16040KT FM031800 11008KT P6SM VCSH OVC045 FM040100 12005KT P6SM SHRA BKN035 WS020/15040KT FM040700 16005KT 4SM BR VCSH OVC013 WS020/17040KT FM041000 22005KT 3SM BR VCSH OVC004

超过4000个机场的气象观测和天气预报(METAR&TAF报告)。

可查询的气象台以黄色和红色小点在地图上表示。

将鼠标移到小点上方,可查看气象台名称。

然后点击查看天气观测和预报。

如需切换地图:点击带黑十字的绿色按钮放大地图;点击带横线的绿色按钮缩小地图;或者点击绿色箭头查看邻近地区的地图。


METAR-TAF: